createdAt,value
2018-08-22T00:00:56.243Z,10.47
2018-08-22T00:03:24.784Z,10.73
2018-08-22T00:05:53.299Z,10.57
2018-08-22T00:08:53.451Z,11.23
2018-08-22T00:11:21.972Z,11.97
2018-08-22T00:13:50.449Z,12.03
2018-08-22T00:16:18.959Z,13.20
2018-08-22T00:18:47.504Z,11.53
2018-08-22T00:21:16.103Z,11.53
2018-08-22T00:23:44.748Z,10.37
2018-08-22T00:26:13.270Z,11.23
2018-08-22T00:28:41.772Z,10.90
2018-08-22T00:31:10.564Z,10.63
2018-08-22T00:33:39.152Z,10.63
2018-08-22T00:36:14.399Z,11.33
2018-08-22T00:38:42.899Z,11.23
2018-08-22T00:41:11.393Z,12.20
2018-08-22T00:43:40.019Z,12.47
2018-08-22T00:46:08.515Z,11.67
2018-08-22T00:48:37.010Z,11.53
2018-08-22T00:51:05.524Z,12.00
2018-08-22T00:53:34.110Z,12.57
2018-08-22T00:56:03.504Z,11.63
2018-08-22T00:58:32.025Z,11.07
2018-08-22T01:01:00.588Z,12.70
2018-08-22T01:03:29.224Z,11.70
2018-08-22T01:05:57.768Z,12.10
2018-08-22T01:08:26.390Z,13.00
2018-08-22T01:10:54.916Z,13.30
2018-08-22T01:13:23.467Z,13.23
2018-08-22T01:15:51.973Z,13.57
2018-08-22T01:18:20.495Z,12.37
2018-08-22T01:20:49.022Z,13.10
2018-08-22T01:23:17.548Z,12.53
2018-08-22T01:25:46.034Z,12.10
2018-08-22T01:28:14.551Z,12.50
2018-08-22T01:30:43.038Z,13.07
2018-08-22T01:33:11.509Z,12.43
2018-08-22T01:35:40.049Z,13.03
2018-08-22T01:38:08.561Z,11.93
2018-08-22T01:40:37.141Z,13.23
2018-08-22T01:43:05.721Z,13.17
2018-08-22T01:45:34.346Z,13.13
2018-08-22T01:48:03.132Z,13.03
2018-08-22T01:50:31.768Z,12.80
2018-08-22T01:53:00.287Z,12.00
2018-08-22T01:55:29.800Z,12.87
2018-08-22T01:57:58.441Z,12.83
2018-08-22T02:00:27.064Z,12.70
2018-08-22T02:02:56.411Z,13.47
2018-08-22T02:05:24.979Z,13.00
2018-08-22T02:07:53.517Z,12.47
2018-08-22T02:10:22.439Z,13.03
2018-08-22T02:12:50.910Z,12.37
2018-08-22T02:15:19.564Z,13.00
2018-08-22T02:17:48.136Z,12.10
2018-08-22T02:20:16.624Z,12.60
2018-08-22T02:22:45.139Z,11.57
2018-08-22T02:25:13.750Z,12.50
2018-08-22T02:27:43.130Z,13.73
2018-08-22T02:30:11.599Z,11.67
2018-08-22T02:32:40.141Z,13.27
2018-08-22T02:35:08.916Z,12.47
2018-08-22T02:37:37.401Z,12.77
2018-08-22T02:40:06.057Z,12.87
2018-08-22T02:42:34.606Z,15.67
2018-08-22T02:45:03.502Z,13.37
2018-08-22T02:47:33.996Z,12.83
2018-08-22T02:50:02.480Z,12.60
2018-08-22T02:52:30.992Z,12.93
2018-08-22T02:55:01.638Z,11.97
2018-08-22T02:57:30.163Z,12.53
2018-08-22T02:59:58.714Z,12.33
2018-08-22T03:02:27.186Z,13.57
2018-08-22T03:04:55.728Z,13.57
2018-08-22T03:07:24.235Z,14.70
2018-08-22T03:09:52.744Z,13.23
2018-08-22T03:12:21.918Z,13.70
2018-08-22T03:14:50.411Z,12.47
2018-08-22T03:17:20.015Z,11.97
2018-08-22T03:19:48.563Z,12.97
2018-08-22T03:22:17.262Z,13.50
2018-08-22T03:24:45.942Z,12.33
2018-08-22T03:27:15.866Z,12.40
2018-08-22T03:29:44.494Z,12.00
2018-08-22T03:32:13.102Z,11.83
2018-08-22T03:34:41.701Z,12.03
2018-08-22T03:37:10.278Z,11.50
2018-08-22T03:39:39.196Z,11.63
2018-08-22T03:42:07.905Z,12.60
2018-08-22T03:44:36.506Z,13.67
2018-08-22T03:47:05.022Z,12.93
2018-08-22T03:49:33.644Z,13.57
2018-08-22T03:52:02.632Z,12.47
2018-08-22T03:54:31.148Z,12.27
2018-08-22T03:56:59.635Z,12.27
2018-08-22T03:59:28.140Z,12.50
2018-08-22T04:01:56.638Z,12.43
2018-08-22T04:04:25.166Z,14.23
2018-08-22T04:06:53.708Z,11.97
2018-08-22T04:09:22.182Z,12.83
2018-08-22T04:11:50.681Z,12.80
2018-08-22T04:14:19.362Z,12.97
2018-08-22T04:16:47.832Z,12.93
2018-08-22T04:19:16.308Z,12.50
2018-08-22T04:21:44.841Z,12.73
2018-08-22T04:24:13.377Z,12.63
2018-08-22T04:26:41.855Z,12.07
2018-08-22T04:29:10.455Z,13.00
2018-08-22T04:31:38.969Z,12.93
2018-08-22T04:34:07.446Z,13.50
2018-08-22T04:36:35.968Z,15.40
2018-08-22T04:39:05.875Z,13.73
2018-08-22T04:41:34.405Z,13.63
2018-08-22T04:44:02.931Z,13.60
2018-08-22T04:46:31.419Z,12.67
2018-08-22T04:48:59.935Z,12.33
2018-08-22T04:51:28.408Z,13.33
2018-08-22T04:53:56.928Z,12.07
2018-08-22T04:56:25.690Z,13.70
2018-08-22T04:58:54.173Z,11.73
2018-08-22T05:01:22.707Z,15.07
2018-08-22T05:03:52.111Z,12.10
2018-08-22T05:06:20.613Z,13.00
2018-08-22T05:08:49.124Z,12.87
2018-08-22T05:11:17.649Z,12.53
2018-08-22T05:13:46.193Z,12.83
2018-08-22T05:16:14.672Z,12.73
2018-08-22T05:18:43.188Z,13.20
2018-08-22T05:21:11.692Z,11.97
2018-08-22T05:23:40.220Z,11.80
2018-08-22T05:26:08.754Z,12.57
2018-08-22T05:28:37.401Z,12.07
2018-08-22T05:31:05.879Z,14.87
2018-08-22T05:33:34.460Z,16.23
2018-08-22T05:36:03.032Z,12.87
2018-08-22T05:38:31.544Z,11.80
2018-08-22T05:41:00.196Z,12.73
2018-08-22T05:43:28.713Z,11.30
2018-08-22T05:45:57.240Z,12.77
2018-08-22T05:48:25.711Z,14.50
2018-08-22T05:50:54.405Z,12.07
2018-08-22T05:53:22.904Z,14.17
2018-08-22T05:55:51.850Z,14.80
2018-08-22T05:58:20.404Z,11.20
2018-08-22T06:00:48.957Z,11.03
2018-08-22T06:03:18.015Z,17.20
2018-08-22T06:05:46.708Z,13.63
2018-08-22T06:08:15.262Z,14.53
2018-08-22T06:10:43.826Z,12.50
2018-08-22T06:13:12.417Z,9.50
2018-08-22T06:15:40.902Z,15.10
2018-08-22T06:18:09.490Z,14.13
2018-08-22T06:20:38.018Z,11.43
2018-08-22T06:23:06.752Z,12.83
2018-08-22T06:25:35.476Z,10.13
2018-08-22T06:28:04.059Z,12.57
2018-08-22T06:30:33.709Z,10.60
2018-08-22T06:33:02.242Z,9.97
2018-08-22T06:35:30.763Z,10.77
2018-08-22T06:37:59.235Z,9.23
2018-08-22T06:40:27.737Z,9.10
2018-08-22T06:42:56.277Z,9.60
2018-08-22T06:45:24.813Z,9.60
2018-08-22T06:47:53.366Z,8.63
2018-08-22T06:50:21.930Z,9.67
2018-08-22T06:52:50.697Z,9.57
2018-08-22T06:55:19.192Z,9.40
2018-08-22T06:57:47.757Z,10.70
2018-08-22T07:00:16.288Z,10.90
2018-08-22T07:02:44.884Z,8.00
2018-08-22T07:05:13.415Z,12.17
2018-08-22T07:07:41.893Z,8.80
2018-08-22T07:10:10.589Z,9.47
2018-08-22T07:12:39.118Z,11.10
2018-08-22T07:15:07.983Z,9.40
2018-08-22T07:17:36.494Z,8.17
2018-08-22T07:20:06.040Z,9.77
2018-08-22T07:22:34.781Z,9.50
2018-08-22T07:25:03.805Z,11.13
2018-08-22T07:27:32.286Z,8.97
2018-08-22T07:30:01.571Z,9.20
2018-08-22T07:32:30.255Z,11.37
2018-08-22T07:34:58.901Z,7.53
2018-08-22T07:37:27.498Z,7.67
2018-08-22T07:39:56.075Z,8.40
2018-08-22T07:42:24.604Z,9.07
2018-08-22T07:44:53.137Z,8.77
2018-08-22T07:47:21.975Z,8.47
2018-08-22T07:49:50.496Z,8.87
2018-08-22T07:52:19.296Z,9.93
2018-08-22T07:54:48.336Z,9.13
2018-08-22T07:57:18.245Z,9.37
2018-08-22T07:59:46.813Z,7.87
2018-08-22T08:02:15.314Z,8.50
2018-08-22T08:04:43.837Z,11.93
2018-08-22T08:07:12.430Z,8.20
2018-08-22T08:09:40.957Z,7.73
2018-08-22T08:12:09.560Z,8.70
2018-08-22T08:14:38.053Z,7.47
2018-08-22T08:17:06.676Z,6.83
2018-08-22T08:19:35.337Z,6.87
2018-08-22T08:22:03.912Z,10.40
2018-08-22T08:24:32.410Z,6.70
2018-08-22T08:27:00.997Z,10.63
2018-08-22T08:29:29.583Z,10.17
2018-08-22T08:31:58.158Z,7.27
2018-08-22T08:34:26.648Z,11.13
2018-08-22T08:36:55.471Z,7.30
2018-08-22T08:39:23.989Z,7.60
2018-08-22T08:41:52.510Z,8.97
2018-08-22T08:44:21.225Z,8.43
2018-08-22T08:46:49.838Z,9.30
2018-08-22T08:49:18.353Z,8.43
2018-08-22T08:51:56.741Z,13.83
2018-08-22T08:54:25.247Z,12.00
2018-08-22T08:56:53.880Z,5.30
2018-08-22T08:59:22.617Z,12.73
2018-08-22T09:01:51.250Z,8.73
2018-08-22T09:04:19.780Z,6.77
2018-08-22T09:06:49.212Z,6.47
2018-08-22T09:09:17.841Z,6.60
2018-08-22T09:11:51.633Z,7.77
2018-08-22T09:14:20.192Z,10.47
2018-08-22T09:16:48.969Z,9.17
2018-08-22T09:19:17.454Z,10.47
2018-08-22T09:21:45.955Z,6.60
2018-08-22T09:24:14.783Z,7.60
2018-08-22T09:26:43.575Z,9.93
2018-08-22T09:29:12.482Z,9.90
2018-08-22T09:31:41.240Z,9.67
2018-08-22T09:34:09.825Z,7.70
2018-08-22T09:36:38.300Z,5.80
2018-08-22T09:39:10.065Z,20.93
2018-08-22T09:41:38.581Z,8.70
2018-08-22T09:44:07.779Z,9.67
2018-08-22T09:46:36.817Z,8.60
2018-08-22T09:49:05.465Z,6.60
2018-08-22T09:51:33.969Z,8.80
2018-08-22T09:54:02.523Z,9.17
2018-08-22T09:56:31.023Z,12.53
2018-08-22T09:58:59.674Z,7.37
2018-08-22T10:01:34.696Z,12.67
2018-08-22T10:04:03.317Z,9.50
2018-08-22T10:06:38.849Z,7.50
2018-08-22T10:09:16.736Z,7.60
2018-08-22T10:11:45.414Z,7.43
2018-08-22T10:14:14.404Z,8.10
2018-08-22T10:16:42.956Z,10.07
2018-08-22T10:19:11.601Z,9.37
2018-08-22T10:21:40.153Z,7.37
2018-08-22T10:24:08.985Z,7.60
2018-08-22T10:26:37.512Z,8.43
2018-08-22T10:29:06.012Z,8.23
2018-08-22T10:31:34.576Z,8.60
2018-08-22T10:34:03.225Z,9.80
2018-08-22T10:36:31.776Z,7.20
2018-08-22T10:39:00.313Z,7.60
2018-08-22T10:41:28.805Z,9.43
2018-08-22T10:43:57.297Z,9.13
2018-08-22T10:46:25.889Z,10.40
2018-08-22T10:48:54.393Z,7.67
2018-08-22T10:51:22.867Z,7.03
2018-08-22T10:53:51.411Z,10.17
2018-08-22T10:56:19.964Z,9.60
2018-08-22T10:58:48.510Z,8.40
2018-08-22T11:01:17.209Z,7.73
2018-08-22T11:03:45.695Z,7.77
2018-08-22T11:06:14.238Z,7.80
2018-08-22T11:08:42.836Z,10.10
2018-08-22T11:11:11.377Z,11.37
2018-08-22T11:13:39.965Z,10.13
2018-08-22T11:16:08.640Z,10.00
2018-08-22T11:18:37.607Z,10.53
2018-08-22T11:21:17.457Z,10.97
2018-08-22T11:23:57.166Z,9.50
2018-08-22T11:26:36.834Z,12.30
2018-08-22T11:29:16.664Z,10.43
2018-08-22T11:31:56.300Z,10.93
2018-08-22T11:34:36.224Z,12.07
2018-08-22T11:37:07.658Z,14.47
2018-08-22T11:39:36.167Z,13.63
2018-08-22T11:42:05.160Z,11.60
2018-08-22T11:44:33.955Z,10.23
2018-08-22T11:47:02.604Z,11.07
2018-08-22T11:49:31.781Z,9.10
2018-08-22T11:52:00.660Z,11.23
2018-08-22T11:54:29.707Z,9.77
2018-08-22T11:56:58.256Z,12.23
2018-08-22T11:59:26.774Z,13.10
2018-08-22T12:01:55.468Z,14.93
2018-08-22T12:04:23.932Z,12.00
2018-08-22T12:06:52.757Z,13.17
2018-08-22T12:09:21.428Z,10.53
2018-08-22T12:11:49.929Z,13.80
2018-08-22T12:14:19.375Z,13.37
2018-08-22T12:16:48.519Z,10.93
2018-08-22T12:19:18.103Z,11.80
2018-08-22T12:21:47.134Z,11.07
2018-08-22T12:24:16.419Z,11.90
2018-08-22T12:26:46.866Z,11.20
2018-08-22T12:29:15.924Z,11.23
2018-08-22T12:31:44.892Z,12.17
2018-08-22T12:34:14.024Z,12.10
2018-08-22T12:36:42.565Z,11.03
2018-08-22T12:39:11.132Z,8.90
2018-08-22T12:41:40.317Z,10.73
2018-08-22T12:44:10.246Z,11.17
2018-08-22T12:46:38.773Z,12.63
2018-08-22T12:49:07.388Z,9.60
2018-08-22T12:51:36.022Z,13.17
2018-08-22T12:54:04.586Z,14.13
2018-08-22T12:56:33.238Z,10.30
2018-08-22T12:59:01.776Z,10.87
2018-08-22T13:01:30.280Z,11.80
2018-08-22T13:03:58.808Z,10.93
2018-08-22T13:06:27.380Z,10.70
2018-08-22T13:08:55.924Z,11.00
2018-08-22T13:11:24.577Z,9.60
2018-08-22T13:13:53.164Z,11.63
2018-08-22T13:16:21.757Z,12.07
2018-08-22T13:18:50.307Z,11.20
2018-08-22T13:21:18.804Z,9.70
2018-08-22T13:23:47.328Z,12.60
2018-08-22T13:26:16.078Z,14.40
2018-08-22T13:28:44.649Z,14.67
2018-08-22T13:31:13.226Z,13.33
2018-08-22T13:33:41.834Z,13.07
2018-08-22T13:36:10.438Z,14.10
2018-08-22T13:38:39.183Z,15.47
2018-08-22T13:41:07.725Z,15.00
2018-08-22T13:43:36.309Z,13.70
2018-08-22T13:46:04.870Z,17.57
2018-08-22T13:48:33.392Z,16.80
2018-08-22T13:51:01.932Z,16.60
2018-08-22T13:53:30.430Z,17.63
2018-08-22T13:55:58.935Z,17.03
2018-08-22T13:58:27.520Z,14.83
2018-08-22T14:00:56.047Z,15.90
2018-08-22T14:03:24.690Z,15.23
2018-08-22T14:05:53.389Z,15.23
2018-08-22T14:08:22.324Z,14.53
2018-08-22T14:10:50.821Z,17.03
2018-08-22T14:13:19.352Z,13.73
2018-08-22T14:15:48.066Z,15.67
2018-08-22T14:18:17.107Z,14.77
2018-08-22T14:20:45.697Z,16.70
2018-08-22T14:23:14.212Z,14.90
2018-08-22T14:25:42.751Z,16.53
2018-08-22T14:28:11.349Z,11.77
2018-08-22T14:30:39.979Z,12.93
2018-08-22T14:33:08.644Z,13.07
2018-08-22T14:35:37.483Z,12.77
2018-08-22T14:38:06.336Z,11.17
2018-08-22T14:40:34.970Z,13.27
2018-08-22T14:43:03.481Z,12.67
2018-08-22T14:45:32.032Z,11.47
2018-08-22T14:48:00.590Z,16.87
2018-08-22T14:50:29.186Z,14.47
2018-08-22T14:52:57.699Z,15.20
2018-08-22T14:55:26.245Z,14.73
2018-08-22T14:57:54.803Z,13.83
2018-08-22T15:00:23.320Z,13.33
2018-08-22T15:02:52.232Z,15.97
2018-08-22T15:05:20.740Z,14.60
2018-08-22T15:07:49.251Z,13.27
2018-08-22T15:10:18.804Z,12.90
2018-08-22T15:12:48.310Z,17.57
2018-08-22T15:15:16.742Z,19.93
2018-08-22T15:17:45.571Z,16.63
2018-08-22T15:20:14.086Z,16.57
2018-08-22T15:22:42.618Z,16.57
2018-08-22T15:25:11.546Z,13.97
2018-08-22T15:27:40.044Z,13.93
2018-08-22T15:30:09.116Z,16.07
2018-08-22T15:32:37.634Z,16.77
2018-08-22T15:35:06.161Z,16.63
2018-08-22T15:37:34.688Z,16.77
2018-08-22T15:40:03.400Z,16.13
2018-08-22T15:42:32.031Z,18.57
2018-08-22T15:45:00.681Z,19.00
2018-08-22T15:47:29.338Z,17.83
2018-08-22T15:49:57.881Z,18.60
2018-08-22T15:52:26.494Z,18.90
2018-08-22T15:55:06.359Z,19.40
2018-08-22T15:57:48.998Z,19.53
2018-08-22T16:00:27.503Z,18.37
2018-08-22T16:02:56.172Z,26.23
2018-08-22T16:05:24.768Z,25.23
2018-08-22T16:07:53.323Z,30.13
2018-08-22T16:10:22.032Z,27.93
2018-08-22T16:12:50.629Z,29.27
2018-08-22T16:15:19.142Z,29.63
2018-08-22T16:17:53.073Z,28.93
2018-08-22T16:20:24.199Z,30.13
2018-08-22T16:22:52.940Z,32.00
2018-08-22T16:25:28.988Z,29.37
2018-08-22T16:27:57.759Z,27.37
2018-08-22T16:30:26.395Z,29.03
2018-08-22T16:32:56.657Z,28.50
2018-08-22T16:35:25.265Z,22.87
2018-08-22T16:38:01.450Z,30.10
2018-08-22T16:40:34.132Z,30.60
2018-08-22T16:43:03.045Z,30.47
2018-08-22T16:45:32.433Z,31.20
2018-08-22T16:48:00.951Z,33.63
2018-08-22T16:50:29.844Z,30.83
2018-08-22T16:52:58.491Z,33.40
2018-08-22T16:55:27.032Z,30.63
2018-08-22T16:57:55.639Z,32.07
2018-08-22T17:00:30.493Z,32.87
2018-08-22T17:02:59.273Z,31.00
2018-08-22T17:05:27.833Z,32.30
2018-08-22T17:07:56.882Z,28.40
2018-08-22T17:10:32.915Z,26.60
2018-08-22T17:13:01.500Z,26.93
2018-08-22T17:15:30.027Z,26.40
2018-08-22T17:17:58.597Z,26.23
2018-08-22T17:20:27.192Z,25.87
2018-08-22T17:22:55.737Z,28.90
2018-08-22T17:25:24.221Z,26.23
2018-08-22T17:27:52.818Z,25.93
2018-08-22T17:30:25.782Z,26.17
2018-08-22T17:32:54.400Z,29.00
2018-08-22T17:35:24.770Z,30.97
2018-08-22T17:38:00.973Z,31.70
2018-08-22T17:40:30.635Z,35.27
2018-08-22T17:42:59.138Z,36.10
2018-08-22T17:45:35.144Z,34.60
2018-08-22T17:48:04.820Z,35.87
2018-08-22T17:50:33.462Z,37.63
2018-08-22T17:53:06.297Z,31.83
2018-08-22T17:55:35.023Z,32.80
2018-08-22T17:58:03.952Z,31.07
2018-08-22T18:00:34.819Z,32.77
2018-08-22T18:03:03.481Z,32.53
2018-08-22T18:05:33.692Z,32.97
2018-08-22T18:08:04.357Z,32.37
2018-08-22T18:10:35.802Z,32.23
2018-08-22T18:13:16.829Z,31.63
2018-08-22T18:15:46.117Z,34.53
2018-08-22T18:18:14.884Z,34.13
2018-08-22T18:20:47.117Z,34.97
2018-08-22T18:23:16.410Z,36.20
2018-08-22T18:25:50.305Z,37.10
2018-08-22T18:28:20.346Z,36.13
2018-08-22T18:30:48.917Z,37.37
2018-08-22T18:33:17.526Z,38.90
2018-08-22T18:35:46.812Z,37.53
2018-08-22T18:38:15.613Z,37.07
2018-08-22T18:40:52.029Z,37.80
2018-08-22T18:43:20.920Z,37.97
2018-08-22T18:45:59.737Z,39.30
2018-08-22T18:48:28.993Z,37.90
2018-08-22T18:50:57.495Z,37.67
2018-08-22T18:53:26.099Z,39.00
2018-08-22T18:56:05.893Z,39.37
2018-08-22T18:58:34.444Z,38.47
2018-08-22T19:01:04.503Z,40.00
2018-08-22T19:03:33.170Z,37.63
2018-08-22T19:06:01.709Z,38.50
2018-08-22T19:08:30.330Z,39.30
2018-08-22T19:10:59.074Z,40.97
2018-08-22T19:13:27.771Z,38.30
2018-08-22T19:15:59.843Z,37.60
2018-08-22T19:18:28.342Z,39.67
2018-08-22T19:20:58.698Z,41.30
2018-08-22T19:23:27.468Z,39.47
2018-08-22T19:25:56.773Z,40.23
2018-08-22T19:28:25.440Z,39.57
2018-08-22T19:30:54.113Z,41.87
2018-08-22T19:33:24.035Z,43.50
2018-08-22T19:35:52.829Z,44.03
2018-08-22T19:38:23.552Z,40.43
2018-08-22T19:40:52.571Z,45.20
2018-08-22T19:43:21.198Z,42.13
2018-08-22T19:45:50.082Z,45.13
2018-08-22T19:48:18.613Z,45.00
2018-08-22T19:50:47.464Z,40.90
2018-08-22T19:53:15.976Z,43.10
2018-08-22T19:55:44.551Z,44.67
2018-08-22T19:58:15.700Z,44.40
2018-08-22T20:00:44.228Z,43.43
2018-08-22T20:03:15.366Z,44.87
2018-08-22T20:05:51.050Z,44.10
2018-08-22T20:08:23.884Z,46.80
2018-08-22T20:10:52.366Z,46.37
2018-08-22T20:13:20.860Z,45.13
2018-08-22T20:15:50.059Z,43.13
2018-08-22T20:18:19.203Z,45.87
2018-08-22T20:20:47.672Z,50.37
2018-08-22T20:23:16.296Z,44.13
2018-08-22T20:25:49.245Z,47.30
2018-08-22T20:28:17.791Z,44.00
2018-08-22T20:30:47.511Z,47.93
2018-08-22T20:33:16.174Z,42.97
2018-08-22T20:35:44.671Z,46.33
2018-08-22T20:38:13.882Z,44.13
2018-08-22T20:40:42.436Z,45.17
2018-08-22T20:43:16.078Z,42.80
2018-08-22T20:45:44.719Z,43.47
2018-08-22T20:48:14.400Z,45.80
2018-08-22T20:50:44.841Z,46.47
2018-08-22T20:53:19.403Z,51.07
2018-08-22T20:55:48.268Z,43.77
2018-08-22T20:58:20.900Z,44.37
2018-08-22T21:00:51.217Z,41.80
2018-08-22T21:03:23.378Z,39.50
2018-08-22T21:05:52.043Z,43.03
2018-08-22T21:08:20.609Z,42.67
2018-08-22T21:10:50.208Z,41.40
2018-08-22T21:13:23.919Z,40.47
2018-08-22T21:15:55.881Z,42.10
2018-08-22T21:18:28.219Z,41.27
2018-08-22T21:21:02.078Z,44.60
2018-08-22T21:23:32.564Z,40.87
2018-08-22T21:26:01.069Z,37.57
2018-08-22T21:28:33.598Z,40.83
2018-08-22T21:31:02.469Z,40.40
2018-08-22T21:33:31.779Z,42.50
2018-08-22T21:36:00.291Z,38.57
2018-08-22T21:38:28.795Z,40.20
2018-08-22T21:40:57.295Z,37.27
2018-08-22T21:43:28.983Z,39.93
2018-08-22T21:46:01.155Z,41.73
2018-08-22T21:48:32.964Z,44.50
2018-08-22T21:51:05.530Z,43.27
2018-08-22T21:53:38.423Z,46.00
2018-08-22T21:56:06.986Z,44.57
2018-08-22T21:58:37.761Z,43.53
2018-08-22T22:01:08.775Z,44.23
2018-08-22T22:03:37.272Z,40.13
2018-08-22T22:06:05.814Z,38.80
2018-08-22T22:08:34.652Z,45.70
2018-08-22T22:11:05.063Z,42.90
2018-08-22T22:13:33.709Z,46.03
2018-08-22T22:16:03.904Z,47.27
2018-08-22T22:18:33.438Z,47.27
2018-08-22T22:21:13.441Z,48.03
2018-08-22T22:23:45.842Z,44.80
2018-08-22T22:26:15.420Z,43.30
2018-08-22T22:28:44.012Z,50.27
2018-08-22T22:31:16.480Z,42.63
2018-08-22T22:33:51.980Z,46.47
2018-08-22T22:36:20.624Z,52.83
2018-08-22T22:38:49.163Z,52.30
2018-08-22T22:41:17.702Z,52.87
2018-08-22T22:43:46.234Z,50.57
2018-08-22T22:46:14.876Z,46.00
2018-08-22T22:48:44.417Z,53.73
2018-08-22T22:51:13.033Z,49.07
2018-08-22T22:53:41.672Z,48.43
2018-08-22T22:56:10.372Z,50.37
2018-08-22T22:58:38.896Z,50.67
2018-08-22T23:01:07.857Z,49.63
2018-08-22T23:03:36.518Z,50.53
2018-08-22T23:06:05.010Z,51.93
2018-08-22T23:08:33.603Z,51.93
2018-08-22T23:11:02.449Z,52.50
2018-08-22T23:13:30.954Z,55.73
2018-08-22T23:15:59.594Z,53.93
2018-08-22T23:18:28.241Z,54.37
2018-08-22T23:20:56.810Z,56.37
2018-08-22T23:23:29.642Z,57.10
2018-08-22T23:26:05.658Z,56.80
2018-08-22T23:28:34.427Z,57.10
2018-08-22T23:31:02.953Z,58.20
2018-08-22T23:33:31.486Z,58.27
2018-08-22T23:36:00.022Z,56.00
2018-08-22T23:38:32.458Z,56.30
2018-08-22T23:41:01.545Z,57.57
2018-08-22T23:43:38.767Z,57.20
2018-08-22T23:46:08.220Z,57.27
2018-08-22T23:48:37.326Z,55.20
2018-08-22T23:51:07.404Z,54.97
2018-08-22T23:53:44.909Z,59.07
2018-08-22T23:56:24.153Z,59.73
2018-08-22T23:58:53.345Z,58.03
